sensor_id;sensor_type;location;lat;lon;timestamp;P1;P2;P0
76045;PMS7003;64741;41.730;44.788;2024-01-27T00:04:37;74;60.6;42.8
76045;PMS7003;64741;41.730;44.788;2024-01-27T00:09:32;73.4;59.8;41.2
76045;PMS7003;64741;41.730;44.788;2024-01-27T00:14:37;72.6;57.2;39.8
76045;PMS7003;64741;41.730;44.788;2024-01-27T00:19:25;71;57.6;39.8
76045;PMS7003;64741;41.730;44.788;2024-01-27T00:24:39;67.6;52.6;37.4
76045;PMS7003;64741;41.730;44.788;2024-01-27T00:28:51;69.6;54;36.4
76045;PMS7003;64741;41.730;44.788;2024-01-27T00:34:24;68;53.2;36.4
76045;PMS7003;64741;41.730;44.788;2024-01-27T00:39:39;68.4;52.8;37.2
76045;PMS7003;64741;41.730;44.788;2024-01-27T00:44:25;69.4;53.2;36.2
76045;PMS7003;64741;41.730;44.788;2024-01-27T00:49:25;64.2;50.2;34.2
76045;PMS7003;64741;41.730;44.788;2024-01-27T00:54:37;65;50.2;34.4
76045;PMS7003;64741;41.730;44.788;2024-01-27T00:59:33;62.2;49;33.2
76045;PMS7003;64741;41.730;44.788;2024-01-27T01:04:33;60;46.8;32.2
76045;PMS7003;64741;41.730;44.788;2024-01-27T01:09:39;61.6;48.8;33.2
76045;PMS7003;64741;41.730;44.788;2024-01-27T01:14:25;61.2;47;32
76045;PMS7003;64741;41.730;44.788;2024-01-27T01:19:40;59.8;46.4;31.8
76045;PMS7003;64741;41.730;44.788;2024-01-27T01:24:25;57.4;46;32
76045;PMS7003;64741;41.730;44.788;2024-01-27T01:29:35;58.6;45.2;31.2
76045;PMS7003;64741;41.730;44.788;2024-01-27T01:34:33;57.2;46;30.8
76045;PMS7003;64741;41.730;44.788;2024-01-27T01:39:37;58.4;46.2;31.4
76045;PMS7003;64741;41.730;44.788;2024-01-27T01:44:25;55;43;29.8
76045;PMS7003;64741;41.730;44.788;2024-01-27T01:49:39;52.4;42.4;29.6
76045;PMS7003;64741;41.730;44.788;2024-01-27T01:54:33;52.4;42.2;29.2
76045;PMS7003;64741;41.730;44.788;2024-01-27T01:59:39;52.4;42.6;29.6
76045;PMS7003;64741;41.730;44.788;2024-01-27T02:04:39;48.6;39.4;27.2
76045;PMS7003;64741;41.730;44.788;2024-01-27T02:09:05;50.6;40.2;28
76045;PMS7003;64741;41.730;44.788;2024-01-27T02:14:39;47.4;38.6;26.8
76045;PMS7003;64741;41.730;44.788;2024-01-27T02:19:25;45;36.6;25.8
76045;PMS7003;64741;41.730;44.788;2024-01-27T02:24:33;48;38.2;26
76045;PMS7003;64741;41.730;44.788;2024-01-27T02:29:37;47.2;38;25.8
76045;PMS7003;64741;41.730;44.788;2024-01-27T02:34:37;45;35.6;24.4
76045;PMS7003;64741;41.730;44.788;2024-01-27T02:39:33;47.4;38.4;27
76045;PMS7003;64741;41.730;44.788;2024-01-27T02:44:09;45.4;36.6;25
76045;PMS7003;64741;41.730;44.788;2024-01-27T02:49:09;42.6;35.2;24.6
76045;PMS7003;64741;41.730;44.788;2024-01-27T02:54:09;45;35.6;24.4
76045;PMS7003;64741;41.730;44.788;2024-01-27T02:59:25;42;33.6;23.2
76045;PMS7003;64741;41.730;44.788;2024-01-27T03:04:25;40;33;22.8
76045;PMS7003;64741;41.730;44.788;2024-01-27T03:09:37;39.2;32.4;22.8
76045;PMS7003;64741;41.730;44.788;2024-01-27T03:14:37;36.8;31.3;22.3
76045;PMS7003;64741;41.730;44.788;2024-01-27T03:19:33;39;32.6;23
76045;PMS7003;64741;41.730;44.788;2024-01-27T03:24:39;38.4;31.8;21.6
76045;PMS7003;64741;41.730;44.788;2024-01-27T03:29:33;35.2;30.4;22
76045;PMS7003;64741;41.730;44.788;2024-01-27T03:34:43;35.4;30.8;21.2
76045;PMS7003;64741;41.730;44.788;2024-01-27T03:39:40;37.4;31.2;21.8
76045;PMS7003;64741;41.730;44.788;2024-01-27T03:44:25;37.4;30.6;21.4
76045;PMS7003;64741;41.730;44.788;2024-01-27T03:49:39;34.2;28.8;20.4
76045;PMS7003;64741;41.730;44.788;2024-01-27T03:54:25;32;28.4;20.2
76045;PMS7003;64741;41.730;44.788;2024-01-27T03:59:33;30.8;27;19.8
76045;PMS7003;64741;41.730;44.788;2024-01-27T04:04:37;31.8;27.4;20.4
76045;PMS7003;64741;41.730;44.788;2024-01-27T04:09:37;29.4;25.6;19.4
76045;PMS7003;64741;41.730;44.788;2024-01-27T04:14:33;30.6;27;20
76045;PMS7003;64741;41.730;44.788;2024-01-27T04:19:25;29.8;25.8;18.8
76045;PMS7003;64741;41.730;44.788;2024-01-27T04:24:37;29.8;26.6;19.8
76045;PMS7003;64741;41.730;44.788;2024-01-27T04:29:39;28.8;25.2;18.4
76045;PMS7003;64741;41.730;44.788;2024-01-27T04:34:25;28;24;17.8
76045;PMS7003;64741;41.730;44.788;2024-01-27T04:39:25;25.6;22.8;17
76045;PMS7003;64741;41.730;44.788;2024-01-27T04:44:39;24.4;22.2;16.4
76045;PMS7003;64741;41.730;44.788;2024-01-27T04:49:37;25;21.8;16.8
76045;PMS7003;64741;41.730;44.788;2024-01-27T04:54:33;24.2;21.8;16.2
76045;PMS7003;64741;41.730;44.788;2024-01-27T04:59:37;26.8;22;17
76045;PMS7003;64741;41.730;44.788;2024-01-27T05:04:33;22.8;20;15.2
76045;PMS7003;64741;41.730;44.788;2024-01-27T05:09:33;23;20.2;15.8
76045;PMS7003;64741;41.730;44.788;2024-01-27T05:14:05;24.4;21.2;15
76045;PMS7003;64741;41.730;44.788;2024-01-27T05:19:33;22.8;20;14.6
76045;PMS7003;64741;41.730;44.788;2024-01-27T05:24:33;22.2;20.4;14.4
76045;PMS7003;64741;41.730;44.788;2024-01-27T05:29:25;20;17.6;14
76045;PMS7003;64741;41.730;44.788;2024-01-27T05:34:05;23;20.4;15
76045;PMS7003;64741;41.730;44.788;2024-01-27T05:39:33;22;18.4;14
76045;PMS7003;64741;41.730;44.788;2024-01-27T05:44:37;22.8;19.6;14.8
76045;PMS7003;64741;41.730;44.788;2024-01-27T05:49:33;21.8;18.4;14.6
76045;PMS7003;64741;41.730;44.788;2024-01-27T05:54:15;22;19.4;13.6
76045;PMS7003;64741;41.730;44.788;2024-01-27T05:59:33;22;19.4;13.4
76045;PMS7003;64741;41.730;44.788;2024-01-27T06:04:39;20.2;17.8;12.8
76045;PMS7003;64741;41.730;44.788;2024-01-27T06:09:39;19;16.8;12.8
76045;PMS7003;64741;41.730;44.788;2024-01-27T06:14:15;19.8;17.6;14
76045;PMS7003;64741;41.730;44.788;2024-01-27T06:19:37;21.4;19;13.4
76045;PMS7003;64741;41.730;44.788;2024-01-27T06:24:41;20;18.4;13.4
76045;PMS7003;64741;41.730;44.788;2024-01-27T06:29:33;19.4;16.8;12.6
76045;PMS7003;64741;41.730;44.788;2024-01-27T06:34:37;21.2;18.6;13.4
76045;PMS7003;64741;41.730;44.788;2024-01-27T06:39:37;20.2;17.6;13
76045;PMS7003;64741;41.730;44.788;2024-01-27T06:44:31;18.8;18;14.4
76045;PMS7003;64741;41.730;44.788;2024-01-27T06:49:37;20.4;18;13.4
76045;PMS7003;64741;41.730;44.788;2024-01-27T06:54:25;20.6;18.8;13.2
76045;PMS7003;64741;41.730;44.788;2024-01-27T06:59:39;19.4;16.6;12.6
76045;PMS7003;64741;41.730;44.788;2024-01-27T07:04:23;18.8;16.6;12.2
76045;PMS7003;64741;41.730;44.788;2024-01-27T07:09:25;20;17.2;12.6
76045;PMS7003;64741;41.730;44.788;2024-01-27T07:14:39;19.4;17.4;13
76045;PMS7003;64741;41.730;44.788;2024-01-27T07:19:25;19.2;17;12.8
76045;PMS7003;64741;41.730;44.788;2024-01-27T07:24:25;19.4;17.6;13
76045;PMS7003;64741;41.730;44.788;2024-01-27T07:29:37;18.8;16.4;12.6
76045;PMS7003;64741;41.730;44.788;2024-01-27T07:34:27;19.6;17.4;12.4
76045;PMS7003;64741;41.730;44.788;2024-01-27T07:39:33;19;16.8;12.8
76045;PMS7003;64741;41.730;44.788;2024-01-27T07:44:09;16.4;15;11.6
76045;PMS7003;64741;41.730;44.788;2024-01-27T07:49:25;17.2;15.2;11.2
76045;PMS7003;64741;41.730;44.788;2024-01-27T07:54:37;18.2;16;12
76045;PMS7003;64741;41.730;44.788;2024-01-27T07:59:37;17.2;14.6;10.4
76045;PMS7003;64741;41.730;44.788;2024-01-27T08:04:33;15.8;13.2;10
76045;PMS7003;64741;41.730;44.788;2024-01-27T08:09:37;16.2;14.8;11.4
76045;PMS7003;64741;41.730;44.788;2024-01-27T08:14:37;19.4;16.8;11.6
76045;PMS7003;64741;41.730;44.788;2024-01-27T08:19:33;18.6;15.8;11.4
76045;PMS7003;64741;41.730;44.788;2024-01-27T08:24:37;17.5;15;11
76045;PMS7003;64741;41.730;44.788;2024-01-27T08:29:19;16.6;15.2;11.6
76045;PMS7003;64741;41.730;44.788;2024-01-27T08:34:27;16.4;14.6;10
76045;PMS7003;64741;41.730;44.788;2024-01-27T08:39:25;15.4;14.4;10.6
76045;PMS7003;64741;41.730;44.788;2024-01-27T08:44:17;15.4;14.4;10.6
76045;PMS7003;64741;41.730;44.788;2024-01-27T08:48:57;16.4;14.8;10.8
76045;PMS7003;64741;41.730;44.788;2024-01-27T08:54:25;15.4;14;11.2
76045;PMS7003;64741;41.730;44.788;2024-01-27T08:59:25;18.6;15;11
76045;PMS7003;64741;41.730;44.788;2024-01-27T09:04:37;16.4;14.4;10.4
76045;PMS7003;64741;41.730;44.788;2024-01-27T09:09:33;18.8;16.4;12
76045;PMS7003;64741;41.730;44.788;2024-01-27T09:14:03;17.4;15.2;11.6
76045;PMS7003;64741;41.730;44.788;2024-01-27T09:19:41;20.2;18;13.8
76045;PMS7003;64741;41.730;44.788;2024-01-27T09:24:15;20.4;17.8;13.2
76045;PMS7003;64741;41.730;44.788;2024-01-27T09:29:41;21.4;19.2;14.4
76045;PMS7003;64741;41.730;44.788;2024-01-27T09:34:27;22.4;18.8;14.6
76045;PMS7003;64741;41.730;44.788;2024-01-27T09:39:41;24.8;22;16.6
76045;PMS7003;64741;41.730;44.788;2024-01-27T09:44:35;25.4;21.6;15.2
76045;PMS7003;64741;41.730;44.788;2024-01-27T09:49:29;24.6;22.4;16.4
76045;PMS7003;64741;41.730;44.788;2024-01-27T09:54:27;30;26.6;19.6
76045;PMS7003;64741;41.730;44.788;2024-01-27T09:59:41;30.8;27.4;20.2
76045;PMS7003;64741;41.730;44.788;2024-01-27T10:04:35;32.2;27.4;19.6
76045;PMS7003;64741;41.730;44.788;2024-01-27T10:09:41;35.4;30.4;21.2
76045;PMS7003;64741;41.730;44.788;2024-01-27T10:14:42;34;29.6;19.8
76045;PMS7003;64741;41.730;44.788;2024-01-27T10:19:27;34.6;29.8;21
76045;PMS7003;64741;41.730;44.788;2024-01-27T10:24:17;38.2;31.2;21.2
76045;PMS7003;64741;41.730;44.788;2024-01-27T10:29:27;38.4;31.6;21.4
76045;PMS7003;64741;41.730;44.788;2024-01-27T10:34:35;37.2;32;22.2
76045;PMS7003;64741;41.730;44.788;2024-01-27T10:39:37;36.8;32;21.6
76045;PMS7003;64741;41.730;44.788;2024-01-27T10:44:37;39;31.4;22.4
76045;PMS7003;64741;41.730;44.788;2024-01-27T10:49:35;39.6;33.4;23
76045;PMS7003;64741;41.730;44.788;2024-01-27T10:54:27;37.4;32.2;22.4
76045;PMS7003;64741;41.730;44.788;2024-01-27T10:59:37;39;31.6;22.4
76045;PMS7003;64741;41.730;44.788;2024-01-27T11:04:41;39.6;33;22
76045;PMS7003;64741;41.730;44.788;2024-01-27T11:09:27;39.8;32.4;22.2
76045;PMS7003;64741;41.730;44.788;2024-01-27T11:14:27;39.4;31.2;21.8
76045;PMS7003;64741;41.730;44.788;2024-01-27T11:19:41;36.8;30.4;21.2
76045;PMS7003;64741;41.730;44.788;2024-01-27T11:24:37;36.8;31.4;21.8
76045;PMS7003;64741;41.730;44.788;2024-01-27T11:29:25;37.2;30.6;20.6
76045;PMS7003;64741;41.730;44.788;2024-01-27T11:34:44;38.8;30.8;21.4
76045;PMS7003;64741;41.730;44.788;2024-01-27T11:39:35;35.6;31.2;21.6
76045;PMS7003;64741;41.730;44.788;2024-01-27T11:44:41;39;30.6;21.4
76045;PMS7003;64741;41.730;44.788;2024-01-27T11:49:41;35.2;31;21.8
76045;PMS7003;64741;41.730;44.788;2024-01-27T11:54:27;36;30.6;21.8
76045;PMS7003;64741;41.730;44.788;2024-01-27T11:59:41;37;31;21.4
76045;PMS7003;64741;41.730;44.788;2024-01-27T12:04:27;37.2;31.2;20.8
76045;PMS7003;64741;41.730;44.788;2024-01-27T12:09:37;34.4;29.8;20.8
76045;PMS7003;64741;41.730;44.788;2024-01-27T12:14:39;34;29.2;20.4
76045;PMS7003;64741;41.730;44.788;2024-01-27T12:19:45;36;30.4;21
76045;PMS7003;64741;41.730;44.788;2024-01-27T12:24:37;36.4;30.4;21.8
76045;PMS7003;64741;41.730;44.788;2024-01-27T12:29:29;38;31.4;21.2
76045;PMS7003;64741;41.730;44.788;2024-01-27T12:34:39;39;31;21.4
76045;PMS7003;64741;41.730;44.788;2024-01-27T12:39:42;38;32.4;22
76045;PMS7003;64741;41.730;44.788;2024-01-27T12:44:29;37;31.6;21.4
76045;PMS7003;64741;41.730;44.788;2024-01-27T12:49:29;41;33.2;22.4
76045;PMS7003;64741;41.730;44.788;2024-01-27T12:54:42;45.6;35;24
76045;PMS7003;64741;41.730;44.788;2024-01-27T12:59:39;50;39.4;27
76045;PMS7003;64741;41.730;44.788;2024-01-27T13:04:35;50;39.6;27.4
76045;PMS7003;64741;41.730;44.788;2024-01-27T13:09:39;51.6;40.4;27.2
76045;PMS7003;64741;41.730;44.788;2024-01-27T13:14:37;50.6;40.6;28.4
76045;PMS7003;64741;41.730;44.788;2024-01-27T13:19:37;49.6;39.2;26.6
76045;PMS7003;64741;41.730;44.788;2024-01-27T13:24:41;48.6;38.8;26.6
76045;PMS7003;64741;41.730;44.788;2024-01-27T13:29:37;51.4;40.6;28
76045;PMS7003;64741;41.730;44.788;2024-01-27T13:34:37;50.8;40.5;27.8
76045;PMS7003;64741;41.730;44.788;2024-01-27T13:39:15;52.2;40;28
76045;PMS7003;64741;41.730;44.788;2024-01-27T13:44:41;51.6;40.6;28.2
76045;PMS7003;64741;41.730;44.788;2024-01-27T13:49:37;51.4;41.4;28.8
76045;PMS7003;64741;41.730;44.788;2024-01-27T13:54:39;52;40.2;27.6
76045;PMS7003;64741;41.730;44.788;2024-01-27T13:59:37;51;41;28.6
76045;PMS7003;64741;41.730;44.788;2024-01-27T14:04:39;52;41.6;28.2
76045;PMS7003;64741;41.730;44.788;2024-01-27T14:09:37;52;42;28.2
76045;PMS7003;64741;41.730;44.788;2024-01-27T14:14:09;51.4;40.4;28
76045;PMS7003;64741;41.730;44.788;2024-01-27T14:19:41;49.4;39.4;27.6
76045;PMS7003;64741;41.730;44.788;2024-01-27T14:24:29;55;43.2;29.2
76045;PMS7003;64741;41.730;44.788;2024-01-27T14:29:39;53.6;43.2;29
76045;PMS7003;64741;41.730;44.788;2024-01-27T14:34:39;57.2;43.6;29.8
76045;PMS7003;64741;41.730;44.788;2024-01-27T14:39:37;58.2;45.2;30.6
76045;PMS7003;64741;41.730;44.788;2024-01-27T14:44:39;58.2;45;30.6
76045;PMS7003;64741;41.730;44.788;2024-01-27T14:49:39;57.2;44.8;30.6
76045;PMS7003;64741;41.730;44.788;2024-01-27T14:54:37;55.8;44.2;30.2
76045;PMS7003;64741;41.730;44.788;2024-01-27T14:59:39;59.6;46.4;31.4
76045;PMS7003;64741;41.730;44.788;2024-01-27T15:04:29;59.8;46.2;30.8
76045;PMS7003;64741;41.730;44.788;2024-01-27T15:09:41;57.8;46;31
76045;PMS7003;64741;41.730;44.788;2024-01-27T15:14:29;58;45.8;30.8
76045;PMS7003;64741;41.730;44.788;2024-01-27T15:19:29;59.8;46.2;31.2
76045;PMS7003;64741;41.730;44.788;2024-01-27T15:24:41;56.8;45.6;31.6
76045;PMS7003;64741;41.730;44.788;2024-01-27T15:29:29;57.2;44.2;30.2
76045;PMS7003;64741;41.730;44.788;2024-01-27T15:34:29;57.4;44.4;30
76045;PMS7003;64741;41.730;44.788;2024-01-27T15:39:39;54.8;43.6;29.4
76045;PMS7003;64741;41.730;44.788;2024-01-27T15:44:38;57.6;44.2;30.6
76045;PMS7003;64741;41.730;44.788;2024-01-27T15:49:37;54.8;43;28.4
76045;PMS7003;64741;41.730;44.788;2024-01-27T15:54:41;55.6;44.2;29.8
76045;PMS7003;64741;41.730;44.788;2024-01-27T15:59:27;55.6;43.4;29
76045;PMS7003;64741;41.730;44.788;2024-01-27T16:04:39;55.4;43.2;29.2
76045;PMS7003;64741;41.730;44.788;2024-01-27T16:09:17;54.4;42.2;28.2
76045;PMS7003;64741;41.730;44.788;2024-01-27T16:14:37;51.6;41.2;28
76045;PMS7003;64741;41.730;44.788;2024-01-27T16:19:39;52.2;42.2;28.8
76045;PMS7003;64741;41.730;44.788;2024-01-27T16:24:39;53.2;41.8;27.8
76045;PMS7003;64741;41.730;44.788;2024-01-27T16:29:37;52.4;40.8;27.6
76045;PMS7003;64741;41.730;44.788;2024-01-27T16:34:29;51;39.8;27
76045;PMS7003;64741;41.730;44.788;2024-01-27T16:39:29;49.4;39;26.4
76045;PMS7003;64741;41.730;44.788;2024-01-27T16:44:41;50;39.4;25
76045;PMS7003;64741;41.730;44.788;2024-01-27T16:49:29;43.8;35.8;24.8
76045;PMS7003;64741;41.730;44.788;2024-01-27T16:54:29;45.2;37;24.2
76045;PMS7003;64741;41.730;44.788;2024-01-27T16:59:41;45;36;24.8
76045;PMS7003;64741;41.730;44.788;2024-01-27T17:04:29;44.4;35.6;24.6
76045;PMS7003;64741;41.730;44.788;2024-01-27T17:09:29;46.2;37;24.8
76045;PMS7003;64741;41.730;44.788;2024-01-27T17:14:39;44;35.6;24
76045;PMS7003;64741;41.730;44.788;2024-01-27T17:19:37;44.6;36.2;24
76045;PMS7003;64741;41.730;44.788;2024-01-27T17:24:37;40.2;34.2;23.2
76045;PMS7003;64741;41.730;44.788;2024-01-27T17:29:09;40.8;33.2;22.6
76045;PMS7003;64741;41.730;44.788;2024-01-27T17:34:29;39.8;32.6;22.2
76045;PMS7003;64741;41.730;44.788;2024-01-27T17:39:41;38;31.2;21.6
76045;PMS7003;64741;41.730;44.788;2024-01-27T17:44:29;36.4;30.6;21.2
76045;PMS7003;64741;41.730;44.788;2024-01-27T17:49:41;35.6;30.2;20.6
76045;PMS7003;64741;41.730;44.788;2024-01-27T17:54:37;36.4;29.6;19.8
76045;PMS7003;64741;41.730;44.788;2024-01-27T17:59:27;32;26.6;18.6
76045;PMS7003;64741;41.730;44.788;2024-01-27T18:04:39;30;27.2;19.6
76045;PMS7003;64741;41.730;44.788;2024-01-27T18:09:37;29.8;26.4;18.6
76045;PMS7003;64741;41.730;44.788;2024-01-27T18:14:35;28.4;24;17.6
76045;PMS7003;64741;41.730;44.788;2024-01-27T18:19:39;24.2;22.6;16.6
76045;PMS7003;64741;41.730;44.788;2024-01-27T18:24:39;25.6;23.2;17.4
76045;PMS7003;64741;41.730;44.788;2024-01-27T18:29:27;24.4;19.2;14.8
76045;PMS7003;64741;41.730;44.788;2024-01-27T18:34:39;18.6;17.6;13.2
76045;PMS7003;64741;41.730;44.788;2024-01-27T18:39:27;21.6;17.8;14
76045;PMS7003;64741;41.730;44.788;2024-01-27T18:44:35;18.8;16.8;12.8
76045;PMS7003;64741;41.730;44.788;2024-01-27T18:49:39;20;17.2;13.2
76045;PMS7003;64741;41.730;44.788;2024-01-27T18:54:39;18.6;16.6;11.6
76045;PMS7003;64741;41.730;44.788;2024-01-27T18:59:19;15.8;13.8;10.4
76045;PMS7003;64741;41.730;44.788;2024-01-27T19:04:29;16.2;15;11
76045;PMS7003;64741;41.730;44.788;2024-01-27T19:09:37;17.6;15.6;10.4
76045;PMS7003;64741;41.730;44.788;2024-01-27T19:14:41;17.2;15;11.2
76045;PMS7003;64741;41.730;44.788;2024-01-27T19:19:29;15.6;14.2;10.2
76045;PMS7003;64741;41.730;44.788;2024-01-27T19:24:29;16.4;12.8;9.4
76045;PMS7003;64741;41.730;44.788;2024-01-27T19:29:07;13;12;8.4
76045;PMS7003;64741;41.730;44.788;2024-01-27T19:34:29;14;11.8;8.6
76045;PMS7003;64741;41.730;44.788;2024-01-27T19:39:35;11.6;10;8.2
76045;PMS7003;64741;41.730;44.788;2024-01-27T19:44:39;12.6;10;7.4
76045;PMS7003;64741;41.730;44.788;2024-01-27T19:49:37;12;10.2;7.4
76045;PMS7003;64741;41.730;44.788;2024-01-27T19:54:37;12;10.8;7.8
76045;PMS7003;64741;41.730;44.788;2024-01-27T19:59:41;13.2;10.8;8.2
76045;PMS7003;64741;41.730;44.788;2024-01-27T20:04:38;12.8;10.6;8.4
76045;PMS7003;64741;41.730;44.788;2024-01-27T20:09:37;13.6;10.4;7.6
76045;PMS7003;64741;41.730;44.788;2024-01-27T20:14:29;11.2;9.6;7
76045;PMS7003;64741;41.730;44.788;2024-01-27T20:19:37;11.6;10;7.8
76045;PMS7003;64741;41.730;44.788;2024-01-27T20:24:39;11;8.8;7
76045;PMS7003;64741;41.730;44.788;2024-01-27T20:29:39;9.6;8.6;6.4
76045;PMS7003;64741;41.730;44.788;2024-01-27T20:34:37;10.8;9.8;7.6
76045;PMS7003;64741;41.730;44.788;2024-01-27T20:39:29;10.4;8.8;6.4
76045;PMS7003;64741;41.730;44.788;2024-01-27T20:44:39;10.2;7.6;5.6
76045;PMS7003;64741;41.730;44.788;2024-01-27T20:49:41;9.6;8;6
76045;PMS7003;64741;41.730;44.788;2024-01-27T20:54:29;8.4;7.4;5.6
76045;PMS7003;64741;41.730;44.788;2024-01-27T20:59:29;8.8;7;5.4
76045;PMS7003;64741;41.730;44.788;2024-01-27T21:04:41;8.4;6.6;5.2
76045;PMS7003;64741;41.730;44.788;2024-01-27T21:09:39;7;6;4.2
76045;PMS7003;64741;41.730;44.788;2024-01-27T21:14:37;7;6;5.4
76045;PMS7003;64741;41.730;44.788;2024-01-27T21:19:39;7;6.2;4.4
76045;PMS7003;64741;41.730;44.788;2024-01-27T21:24:27;5.8;5.8;4.6
76045;PMS7003;64741;41.730;44.788;2024-01-27T21:29:37;6.8;5.4;4.4
76045;PMS7003;64741;41.730;44.788;2024-01-27T21:34:41;6.2;5.4;3.6
76045;PMS7003;64741;41.730;44.788;2024-01-27T21:39:37;7;6.2;4.4
76045;PMS7003;64741;41.730;44.788;2024-01-27T21:44:35;6.8;5;4.2
76045;PMS7003;64741;41.730;44.788;2024-01-27T21:49:29;6.6;6;3.8
76045;PMS7003;64741;41.730;44.788;2024-01-27T21:54:39;5.4;4.4;3.6
76045;PMS7003;64741;41.730;44.788;2024-01-27T21:59:35;5.2;4.6;3.4
76045;PMS7003;64741;41.730;44.788;2024-01-27T22:04:37;5.4;4.4;3.6
76045;PMS7003;64741;41.730;44.788;2024-01-27T22:09:35;6.8;5.4;4
76045;PMS7003;64741;41.730;44.788;2024-01-27T22:14:37;5.6;4.8;3.6
76045;PMS7003;64741;41.730;44.788;2024-01-27T22:19:35;4.4;3.8;2.8
76045;PMS7003;64741;41.730;44.788;2024-01-27T22:24:39;6;5;3.8
76045;PMS7003;64741;41.730;44.788;2024-01-27T22:29:27;5.6;4.6;3.4
76045;PMS7003;64741;41.730;44.788;2024-01-27T22:34:29;4.8;4.2;3.2
76045;PMS7003;64741;41.730;44.788;2024-01-27T22:39:38;3.2;3;2.4
76045;PMS7003;64741;41.730;44.788;2024-01-27T22:44:37;3.2;3;2
76045;PMS7003;64741;41.730;44.788;2024-01-27T22:49:35;4.4;3.6;2.4
76045;PMS7003;64741;41.730;44.788;2024-01-27T22:54:37;3.2;2.8;2.4
76045;PMS7003;64741;41.730;44.788;2024-01-27T22:59:37;3.6;2.6;1.8
76045;PMS7003;64741;41.730;44.788;2024-01-27T23:04:35;2.6;2.2;1.6
76045;PMS7003;64741;41.730;44.788;2024-01-27T23:09:37;3.8;2.8;2
76045;PMS7003;64741;41.730;44.788;2024-01-27T23:14:29;3.4;3;2
76045;PMS7003;64741;41.730;44.788;2024-01-27T23:19:39;2.2;2.2;1.8
76045;PMS7003;64741;41.730;44.788;2024-01-27T23:24:29;4;2;1.4
76045;PMS7003;64741;41.730;44.788;2024-01-27T23:29:29;2.6;2;1.6
76045;PMS7003;64741;41.730;44.788;2024-01-27T23:34:39;2.6;2.2;1.4
76045;PMS7003;64741;41.730;44.788;2024-01-27T23:39:30;3.2;2.2;1.6
76045;PMS7003;64741;41.730;44.788;2024-01-27T23:44:29;1.8;1.6;0.8
76045;PMS7003;64741;41.730;44.788;2024-01-27T23:49:37;2.8;2.4;1.4
76045;PMS7003;64741;41.730;44.788;2024-01-27T23:54:35;2.3;2.3;1.5
76045;PMS7003;64741;41.730;44.788;2024-01-27T23:59:25;2;1.4;0.8
